Terminal Aerodrome Forecast
Issued by NWS Corpus Christi, TX

Current Version | Previous Version | Text Only | Print | Product List | Glossary On
Versions: 1 2 3 4 5 6 7 8 9 10 11 12 13 14 15
000
FTUS44 KCRP 220500
TAFCRP
TAF
KCRP 220531Z 2206/2306 16010KT P6SM FEW015
      TEMPO 2206/2210 BKN015
     FM221400 17016G22KT P6SM SCT025
     FM221900 14020G27KT P6SM FEW040
     FM230400 16011KT P6SM FEW018=

USA.gov is the U.S. government's official web portal to all federal, state and local government web resources and services.